Terminal Aerodrome Forecast
Issued by NWS

Home | Current Version | Previous Version | Text Only | Print | Product List | Glossary On
Versions: 1 2 3 4 5 6 7 8 9 10 11 12 13 14 15 16 17 18 19 20 21 22
000
FTUS41 KOKX 190500
TAFHPN
TAF
KHPN 190520Z 1906/2006 VRB02KT P6SM BKN250
     FM191200 32008KT P6SM FEW060
     FM191500 32013G19KT P6SM SKC
     FM192100 33011KT P6SM SKC
     FM200200 01007KT P6SM SKC
      AMD NOT SKED=

USA.gov is the U.S. government's official web portal to all federal, state and local government web resources and services.